Terminal Aerodrome Forecast
Issued by NWS Blacksburg, VA

Current Version | Previous Version | Graphics & Text | Print | Product List | Glossary On
Versions: 1 2 3 4 5 6 7 8 9 10 11 12 13 14 15 16 17 18 19 20 21 22 23 24 25 26 27 28 29 30 31 32 33 34
000
FTUS41 KRNK 032345
TAFBLF
TAF
KBLF 032345Z 0400/0424 32004KT P6SM OVC180
     FM040600 VRB03KT P6SM OVC120
     FM041500 13004KT P6SM BKN035 OVC080
     FM042100 12005KT P6SM -RA OVC025=

USA.gov is the U.S. government's official web portal to all federal, state and local government web resources and services.